Iberia, Ohio
Current Conditions -  °F | °C
As of 5:53 PM on Saturday 25 Oct 2014 (Local Time) from KMNN Reporting Station
Light Rain Light Rain  
Wind Chill: 70°   Ceiling: Unl
Heat Index: 70°   Visibility: 10mi
Dew Point: 44°   Wind: 16mph
Humidity: 39%   Direction: 290°WNW
Pressure: 29.83"   Gusts: 24mph
Location:  40.67°N, 82.84°W
Report Text: KMNN 252153Z AUTO 29014G21KT 10SM -RA CLR 21/07 A2983 RMK AO2 RAB10 SLP100 P0000 T02110067 TSNO $
Loading
Personal Weather Stations






























Interactive Weather Map New forecast layout! Learn more

10-Day Weather Forecast

Advertisements
Track Severe Weather on mobile